Time;durP1;ratioP1;P1;durP2;ratioP2;P2;SDS_P1;SDS_P2;PMS_P1;PMS_P2;Temp;Humidity;BMP_temperature;BMP_pressure;BME280_temperature;BME280_humidity;BME280_pressure;Samples;Min_cycle;Max_cycle;Signal;HPM_P1;HPM_P2
2022/10/10 00:00:56;;;;;;;;;;;;;;;13.75;52.52;100504.53;4307611;33;35177;-88
2022/10/10 00:03:34;;;;;;;;;;;;;;;13.66;52.48;100509.84;4316865;33;34128;-90
2022/10/10 00:06:03;;;;;;;;;;;;;;;13.72;52.70;100514.13;4318371;33;33099;-89
2022/10/10 00:08:44;;;;;;;;;;;;;;;13.75;52.26;100511.47;4317745;33;33798;-89
2022/10/10 00:11:15;;;;;;;;;;;;;;;13.56;52.04;100508.25;4330635;33;33316;-88
2022/10/10 00:13:44;;;;;;;;;;;;;;;13.56;52.71;100511.72;4310661;33;33585;-90
2022/10/10 00:16:15;;;;;;;;;;;;;;;13.61;51.96;100509.91;4312853;33;33145;-89
2022/10/10 00:18:44;;;;;;;;;;;;;;;13.52;52.48;100501.34;4313944;33;34417;-88
2022/10/10 00:21:13;;;;;;;;;;;;;;;13.38;53.05;100498.88;4317590;33;33995;-89
2022/10/10 00:23:45;;;;;;;;;;;;;;;13.51;53.06;100500.50;4319672;33;34933;-87
2022/10/10 00:26:23;;;;;;;;;;;;;;;13.43;52.49;100499.69;4316887;33;34711;-89
2022/10/10 00:28:52;;;;;;;;;;;;;;;13.23;53.00;100498.16;4329817;33;32399;-89
2022/10/10 00:31:28;;;;;;;;;;;;;;;13.49;51.43;100498.78;4328803;33;34190;-88
2022/10/10 00:33:59;;;;;;;;;;;;;;;13.37;51.39;100495.44;4318182;33;34682;-88
2022/10/10 00:36:29;;;;;;;;;;;;;;;13.41;51.62;100493.66;4318893;33;33574;-89
2022/10/10 00:39:04;;;;;;;;;;;;;;;13.39;51.34;100490.22;4314038;33;32480;-87
2022/10/10 00:41:35;;;;;;;;;;;;;;;13.49;51.05;100481.37;4330265;33;32659;-90
2022/10/10 00:44:06;;;;;;;;;;;;;;;13.36;50.90;100479.81;4316161;33;34954;-90
2022/10/10 00:46:34;;;;;;;;;;;;;;;13.16;51.67;100483.47;4316632;33;32897;-89
2022/10/10 00:49:06;;;;;;;;;;;;;;;13.19;51.79;100478.25;4313224;33;35212;-89
2022/10/10 00:51:35;;;;;;;;;;;;;;;13.25;52.11;100477.31;4325201;33;37328;-88
2022/10/10 00:54:08;;;;;;;;;;;;;;;13.36;50.98;100475.47;4316417;33;34336;-87
2022/10/10 00:56:39;;;;;;;;;;;;;;;13.35;50.81;100468.53;4328776;33;33522;-87
2022/10/10 00:59:10;;;;;;;;;;;;;;;13.43;50.63;100471.03;4312356;33;32640;-88
2022/10/10 01:01:39;;;;;;;;;;;;;;;12.73;51.09;100468.31;4321317;33;33151;-90
2022/10/10 01:04:23;;;;;;;;;;;;;;;13.07;50.90;100465.34;4326850;33;34967;-89
2022/10/10 01:06:52;;;;;;;;;;;;;;;13.04;50.94;100454.94;4329977;33;35996;-89
2022/10/10 01:09:21;;;;;;;;;;;;;;;13.38;49.96;100458.03;4278209;33;1810378;-88
2022/10/10 01:11:55;;;;;;;;;;;;;;;13.21;50.45;100458.22;4317811;33;34179;-89
2022/10/10 01:14:27;;;;;;;;;;;;;;;13.16;50.63;100452.19;4326314;33;33409;-88
2022/10/10 01:17:05;;;;;;;;;;;;;;;13.26;50.14;100457.31;4327912;33;33734;-88
2022/10/10 01:19:58;;;;;;;;;;;;;;;13.27;50.13;100459.06;4328109;33;33682;-89
2022/10/10 01:22:32;;;;;;;;;;;;;;;13.29;49.91;100462.50;4288577;33;34515;-88
2022/10/10 01:25:06;;;;;;;;;;;;;;;13.24;49.79;100463.41;4286458;33;35400;-89
2022/10/10 01:27:39;;;;;;;;;;;;;;;13.19;50.08;100460.00;4283719;33;33267;-93
2022/10/10 01:30:15;;;;;;;;;;;;;;;12.95;50.75;100457.66;4285433;33;34649;-90
2022/10/10 01:32:46;;;;;;;;;;;;;;;12.97;50.45;100461.97;4283882;33;34388;-89
2022/10/10 01:35:23;;;;;;;;;;;;;;;13.09;49.82;100453.16;4272005;33;35115;-87
2022/10/10 01:37:58;;;;;;;;;;;;;;;13.20;49.93;100448.69;4278676;33;32664;-88
2022/10/10 01:40:30;;;;;;;;;;;;;;;13.15;49.89;100450.50;4269802;33;34989;-90
2022/10/10 01:43:01;;;;;;;;;;;;;;;12.99;50.55;100454.13;4281752;33;35113;-87
2022/10/10 01:45:33;;;;;;;;;;;;;;;13.20;49.88;100450.44;4276199;33;33929;-88
2022/10/10 01:48:03;;;;;;;;;;;;;;;13.16;50.35;100447.00;4285193;33;33378;-89
2022/10/10 01:50:33;;;;;;;;;;;;;;;13.19;50.33;100444.37;4283481;33;35084;-89
2022/10/10 01:53:07;;;;;;;;;;;;;;;13.11;50.85;100440.97;4273509;33;32873;-87
2022/10/10 01:55:48;;;;;;;;;;;;;;;13.05;50.59;100435.84;4270922;33;34096;-89
2022/10/10 01:58:39;;;;;;;;;;;;;;;13.24;50.06;100445.19;4281008;33;33388;-87
2022/10/10 02:01:11;;;;;;;;;;;;;;;13.06;50.77;100453.19;4329858;33;34671;-87
2022/10/10 02:03:41;;;;;;;;;;;;;;;13.08;50.34;100458.41;4318282;33;34988;-91
2022/10/10 02:06:12;;;;;;;;;;;;;;;13.03;50.44;100451.50;4312516;33;34740;-89
2022/10/10 02:08:41;;;;;;;;;;;;;;;13.16;50.39;100446.13;4314832;33;32690;-89
2022/10/10 02:11:11;;;;;;;;;;;;;;;13.06;50.46;100447.13;4315966;33;35557;-88
2022/10/10 02:13:42;;;;;;;;;;;;;;;12.95;50.80;100445.50;4307057;33;34264;-91
2022/10/10 02:16:13;;;;;;;;;;;;;;;13.10;50.26;100452.28;4321131;33;32755;-88
2022/10/10 02:19:08;;;;;;;;;;;;;;;13.06;50.59;100444.53;4320204;33;33460;-88
2022/10/10 02:21:37;;;;;;;;;;;;;;;12.89;51.53;100450.78;4317703;33;34209;-91
2022/10/10 02:24:12;;;;;;;;;;;;;;;12.97;51.51;100445.47;4327338;33;34404;-89
2022/10/10 02:26:41;;;;;;;;;;;;;;;13.02;50.62;100446.28;4333338;33;32401;-90
2022/10/10 02:29:11;;;;;;;;;;;;;;;13.02;50.43;100441.97;4317157;33;32807;-90
2022/10/10 02:31:43;;;;;;;;;;;;;;;13.10;50.57;100443.63;4316074;33;35024;-92
2022/10/10 02:34:13;;;;;;;;;;;;;;;12.93;50.91;100449.00;4326090;33;34124;-89
2022/10/10 02:36:42;;;;;;;;;;;;;;;12.93;51.13;100454.22;4317479;33;34366;-92
2022/10/10 02:39:14;;;;;;;;;;;;;;;12.81;51.43;100461.28;4304759;33;33740;-89
2022/10/10 02:41:44;;;;;;;;;;;;;;;12.96;51.07;100454.19;4303850;33;34582;-88
2022/10/10 02:44:15;;;;;;;;;;;;;;;12.99;50.79;100454.13;4313599;33;34689;-88
2022/10/10 02:46:45;;;;;;;;;;;;;;;13.02;50.51;100447.16;4317048;33;34634;-89
2022/10/10 02:49:15;;;;;;;;;;;;;;;12.82;50.89;100449.97;4319514;33;34794;-90
2022/10/10 02:51:44;;;;;;;;;;;;;;;13.08;50.65;100451.44;4328500;33;34707;-89
2022/10/10 02:54:23;;;;;;;;;;;;;;;13.04;50.55;100454.94;4325641;33;34138;-89
2022/10/10 02:56:52;;;;;;;;;;;;;;;12.99;50.53;100443.72;4315644;33;37161;-89
2022/10/10 02:59:25;;;;;;;;;;;;;;;12.74;51.04;100445.72;4327844;33;32334;-89
2022/10/10 03:02:03;;;;;;;;;;;;;;;13.07;50.00;100439.31;4329821;33;34719;-87
2022/10/10 03:04:32;;;;;;;;;;;;;;;13.00;50.60;100430.69;4329589;33;36034;-89
2022/10/10 03:07:01;;;;;;;;;;;;;;;12.80;51.57;100437.84;4328528;33;33644;-89
2022/10/10 03:09:31;;;;;;;;;;;;;;;12.75;51.45;100442.22;4323210;33;33679;-91
2022/10/10 03:12:05;;;;;;;;;;;;;;;12.84;51.10;100444.75;4318153;33;34235;-90
2022/10/10 03:14:35;;;;;;;;;;;;;;;12.92;51.03;100448.13;4331009;33;34155;-92
2022/10/10 03:17:08;;;;;;;;;;;;;;;12.71;51.71;100445.75;4327057;33;34298;-91
2022/10/10 03:19:37;;;;;;;;;;;;;;;12.65;51.84;100443.22;4329225;33;32940;-87
2022/10/10 03:22:09;;;;;;;;;;;;;;;12.76;51.20;100439.63;4325184;33;34178;-87
2022/10/10 03:24:38;;;;;;;;;;;;;;;12.80;50.95;100436.09;4334799;33;34905;-88
2022/10/10 03:27:09;;;;;;;;;;;;;;;12.85;50.84;100436.03;4329284;33;33865;-89
2022/10/10 03:29:39;;;;;;;;;;;;;;;12.92;50.83;100429.03;4324544;33;33462;-88
2022/10/10 03:32:11;;;;;;;;;;;;;;;12.66;52.14;100435.41;4327848;33;34669;-89
2022/10/10 03:34:41;;;;;;;;;;;;;;;12.72;51.95;100429.25;4314142;33;35036;-87
2022/10/10 03:37:12;;;;;;;;;;;;;;;12.74;51.68;100430.97;4327413;33;34627;-90
2022/10/10 03:39:40;;;;;;;;;;;;;;;12.81;51.37;100431.78;4312066;33;34388;-89
2022/10/10 03:42:12;;;;;;;;;;;;;;;12.85;51.41;100438.66;4330417;33;34846;-88
2022/10/10 03:44:41;;;;;;;;;;;;;;;12.70;51.78;100436.22;4323133;33;35057;-89
2022/10/10 03:47:13;;;;;;;;;;;;;;;12.56;52.15;100434.63;4328911;33;35906;-89
2022/10/10 03:49:42;;;;;;;;;;;;;;;12.72;51.81;100430.13;4330097;33;34752;-88
2022/10/10 03:52:14;;;;;;;;;;;;;;;12.77;51.54;100440.47;4315505;33;33881;-88
2022/10/10 03:54:47;;;;;;;;;;;;;;;12.77;51.95;100428.31;4322822;33;36260;-91
2022/10/10 03:57:22;;;;;;;;;;;;;;;12.68;51.99;100428.41;4323944;33;33586;-87
2022/10/10 04:00:09;;;;;;;;;;;;;;;12.89;51.31;100423.87;4329574;33;31457;-93
2022/10/10 04:02:42;;;;;;;;;;;;;;;12.67;51.90;100436.25;4325164;33;34950;-90
2022/10/10 04:05:11;;;;;;;;;;;;;;;12.60;52.36;100432.84;4316353;33;32838;-87
2022/10/10 04:07:46;;;;;;;;;;;;;;;12.73;51.42;100426.66;4330356;33;34582;-89
2022/10/10 04:10:14;;;;;;;;;;;;;;;12.64;52.32;100428.47;4332533;33;34474;-89
2022/10/10 04:12:44;;;;;;;;;;;;;;;12.46;52.55;100429.50;4332050;33;33559;-88
2022/10/10 04:15:13;;;;;;;;;;;;;;;12.55;52.13;100429.41;4323727;33;34884;-88
2022/10/10 04:17:48;;;;;;;;;;;;;;;12.67;51.74;100429.31;4329415;33;34965;-90
2022/10/10 04:20:17;;;;;;;;;;;;;;;12.63;52.46;100422.41;4325852;33;32401;-88
2022/10/10 04:22:45;;;;;;;;;;;;;;;12.67;52.23;100426.69;4317705;33;33639;-90
2022/10/10 04:25:16;;;;;;;;;;;;;;;12.58;52.22;100430.25;4329858;33;33859;-88
2022/10/10 04:27:51;;;;;;;;;;;;;;;12.76;52.32;100420.56;4321484;33;33561;-90
2022/10/10 04:30:27;;;;;;;;;;;;;;;12.45;52.36;100425.19;4325327;33;32673;-90
2022/10/10 04:32:58;;;;;;;;;;;;;;;12.62;52.04;100423.28;4326483;33;34785;-92
2022/10/10 04:35:34;;;;;;;;;;;;;;;12.59;52.44;100420.72;4329320;33;33616;-90
2022/10/10 04:38:04;;;;;;;;;;;;;;;12.60;52.67;100427.63;4313465;33;32978;-88
2022/10/10 04:40:33;;;;;;;;;;;;;;;12.79;51.97;100423.97;4330386;33;33274;-91
2022/10/10 04:43:02;;;;;;;;;;;;;;;12.66;52.38;100426.69;4327101;33;33714;-91
2022/10/10 04:45:32;;;;;;;;;;;;;;;12.57;52.80;100430.28;4326034;33;33743;-89
2022/10/10 04:48:06;;;;;;;;;;;;;;;12.57;53.16;100432.88;4329498;33;34587;-87
2022/10/10 04:50:37;;;;;;;;;;;;;;;12.55;52.85;100442.44;4327941;33;31651;-88
2022/10/10 04:53:06;;;;;;;;;;;;;;;12.69;52.33;100432.75;4326447;33;33793;-90
2022/10/10 04:55:35;;;;;;;;;;;;;;;12.59;52.66;100432.00;4325298;33;33352;-89
2022/10/10 04:58:07;;;;;;;;;;;;;;;12.51;52.44;100435.53;4330527;33;33144;-88
2022/10/10 05:00:37;;;;;;;;;;;;;;;12.53;52.91;100434.63;4324083;33;34794;-88
2022/10/10 05:03:10;;;;;;;;;;;;;;;12.54;52.80;100438.09;4312581;33;33899;-88
2022/10/10 05:05:43;;;;;;;;;;;;;;;12.52;53.04;100445.06;4310713;33;34745;-92
2022/10/10 05:08:11;;;;;;;;;;;;;;;12.62;52.79;100438.91;4292622;33;32518;-88
2022/10/10 05:10:45;;;;;;;;;;;;;;;12.68;52.87;100437.97;4312874;33;32238;-88
2022/10/10 05:13:15;;;;;;;;;;;;;;;12.45;53.27;100435.59;4305976;33;36289;-95
2022/10/10 05:15:44;;;;;;;;;;;;;;;12.64;52.38;100433.69;4307114;33;34664;-91
2022/10/10 05:18:14;;;;;;;;;;;;;;;12.40;53.30;100438.25;4313845;33;32443;-89
2022/10/10 05:20:46;;;;;;;;;;;;;;;12.56;52.69;100432.03;4314819;33;31556;-89
2022/10/10 05:23:15;;;;;;;;;;;;;;;12.72;52.40;100440.53;4317210;33;33394;-90
2022/10/10 05:25:47;;;;;;;;;;;;;;;12.47;53.31;100434.69;4316405;33;34866;-91
2022/10/10 05:28:16;;;;;;;;;;;;;;;12.62;53.20;100435.44;4310403;33;34253;-88
2022/10/10 05:30:45;;;;;;;;;;;;;;;12.52;53.49;100438.13;4312247;33;33337;-90
2022/10/10 05:33:15;;;;;;;;;;;;;;;12.45;54.17;100440.81;4314283;33;34744;-89
2022/10/10 05:35:50;;;;;;;;;;;;;;;12.91;51.78;100442.97;4313040;33;33427;-91
2022/10/10 05:38:19;;;;;;;;;;;;;;;12.63;52.74;100439.75;4312286;33;33955;-90
2022/10/10 05:40:47;;;;;;;;;;;;;;;12.67;53.08;100447.53;4314213;33;31416;-91
2022/10/10 05:43:19;;;;;;;;;;;;;;;12.82;53.28;100444.75;4314394;33;33742;-87
2022/10/10 05:45:49;;;;;;;;;;;;;;;12.82;52.56;100454.31;4301477;33;33410;-88
2022/10/10 05:48:20;;;;;;;;;;;;;;;12.84;52.65;100449.09;4312315;33;33490;-88
2022/10/10 05:50:49;;;;;;;;;;;;;;;12.88;52.20;100453.38;4311420;33;33194;-89
2022/10/10 05:53:21;;;;;;;;;;;;;;;12.90;52.51;100447.31;4310136;33;33938;-90
2022/10/10 05:55:52;;;;;;;;;;;;;;;12.70;53.04;100457.91;4316356;33;34597;-93
2022/10/10 05:58:23;;;;;;;;;;;;;;;13.01;52.30;100450.63;4313429;33;33228;-88
2022/10/10 06:01:01;;;;;;;;;;;;;;;12.74;53.07;100453.53;4314964;33;33239;-90
2022/10/10 06:03:32;;;;;;;;;;;;;;;12.92;52.46;100455.09;4324158;33;33789;-90
2022/10/10 06:06:04;;;;;;;;;;;;;;;13.04;52.14;100452.34;4320227;33;33955;-89
2022/10/10 06:08:40;;;;;;;;;;;;;;;13.02;52.41;100459.31;4330973;33;33728;-91
2022/10/10 06:11:09;;;;;;;;;;;;;;;13.09;52.23;100454.91;4325835;33;33589;-89
2022/10/10 06:13:42;;;;;;;;;;;;;;;12.85;52.70;100461.22;4319606;33;32825;-90
2022/10/10 06:16:10;;;;;;;;;;;;;;;13.24;52.03;100449.53;4324666;33;33586;-87
2022/10/10 06:18:45;;;;;;;;;;;;;;;13.13;52.46;100457.47;4327063;33;34158;-89
2022/10/10 06:21:15;;;;;;;;;;;;;;;13.29;52.25;100449.47;4332438;33;33369;-88
2022/10/10 06:23:46;;;;;;;;;;;;;;;13.31;52.03;100448.59;4322981;33;35264;-88
2022/10/10 06:26:15;;;;;;;;;;;;;;;13.32;51.89;100454.69;4322666;33;33870;-91
2022/10/10 06:28:45;;;;;;;;;;;;;;;13.42;52.02;100448.47;4322712;33;33220;-89
2022/10/10 06:31:15;;;;;;;;;;;;;;;13.47;51.77;100457.09;4326668;33;31628;-89
2022/10/10 06:33:52;;;;;;;;;;;;;;;13.24;52.55;100450.37;4326158;33;34880;-89
2022/10/10 06:36:21;;;;;;;;;;;;;;;13.66;51.22;100449.88;4322685;33;33956;-88
2022/10/10 06:38:55;;;;;;;;;;;;;;;13.63;51.64;100448.19;4324976;33;33852;-91
2022/10/10 06:41:27;;;;;;;;;;;;;;;13.74;51.51;100453.25;4325315;33;33662;-93
2022/10/10 06:43:57;;;;;;;;;;;;;;;13.75;51.02;100447.16;4329907;33;33586;-89
2022/10/10 06:46:33;;;;;;;;;;;;;;;13.80;51.08;100452.31;4326913;33;34516;-89
2022/10/10 06:49:03;;;;;;;;;;;;;;;13.77;50.81;100450.59;4327933;33;33509;-91
2022/10/10 06:51:33;;;;;;;;;;;;;;;14.00;50.14;100455.47;4330643;33;32602;-90
2022/10/10 06:54:01;;;;;;;;;;;;;;;14.14;49.93;100443.97;4325312;33;33390;-92
2022/10/10 06:56:36;;;;;;;;;;;;;;;14.13;49.51;100453.53;4329661;33;35159;-89
2022/10/10 06:59:05;;;;;;;;;;;;;;;13.89;50.11;100454.75;4313703;33;32815;-89
2022/10/10 07:01:39;;;;;;;;;;;;;;;13.71;50.41;100450.69;4320387;33;33341;-89
2022/10/10 07:04:11;;;;;;;;;;;;;;;13.81;50.05;100457.47;4315644;33;33386;-90
2022/10/10 07:06:41;;;;;;;;;;;;;;;13.85;50.53;100453.97;4317092;33;33842;-89
2022/10/10 07:09:09;;;;;;;;;;;;;;;13.89;50.21;100446.94;4317071;33;34288;-88
2022/10/10 07:11:44;;;;;;;;;;;;;;;13.79;50.56;100453.19;4317529;33;33707;-87
2022/10/10 07:14:13;;;;;;;;;;;;;;;13.93;49.92;100448.62;4318119;33;33970;-90
2022/10/10 07:16:42;;;;;;;;;;;;;;;14.12;49.28;100454.44;4317493;33;34019;-88
2022/10/10 07:19:12;;;;;;;;;;;;;;;14.26;49.61;100454.22;4306773;33;32394;-88
2022/10/10 07:21:41;;;;;;;;;;;;;;;14.23;49.82;100456.84;4315271;33;35561;-88
2022/10/10 07:24:10;;;;;;;;;;;;;;;14.15;50.18;100458.75;4302895;33;33121;-91
2022/10/10 07:26:45;;;;;;;;;;;;;;;14.50;49.73;100456.41;4317319;33;33869;-90
2022/10/10 07:29:14;;;;;;;;;;;;;;;14.51;49.53;100465.09;4318965;33;34684;-92
2022/10/10 07:31:46;;;;;;;;;;;;;;;14.35;48.41;100456.66;4318662;33;33118;-92
2022/10/10 07:34:16;;;;;;;;;;;;;;;14.33;49.22;100461.06;4302961;33;33937;-89
2022/10/10 07:36:47;;;;;;;;;;;;;;;14.27;49.19;100454.19;4316087;33;33558;-90
2022/10/10 07:39:18;;;;;;;;;;;;;;;14.32;49.73;100464.53;4314852;33;34407;-89
2022/10/10 07:41:48;;;;;;;;;;;;;;;14.23;48.96;100456.84;4315911;33;32766;-88
2022/10/10 07:44:17;;;;;;;;;;;;;;;14.49;48.68;100467.72;4313394;33;33907;-88
2022/10/10 07:46:49;;;;;;;;;;;;;;;14.59;48.55;100462.41;4315649;33;34367;-91
2022/10/10 07:49:20;;;;;;;;;;;;;;;14.54;48.89;100459.00;4309545;33;33474;-89
2022/10/10 07:51:51;;;;;;;;;;;;;;;14.59;48.50;100457.16;4313144;33;32053;-89
2022/10/10 07:54:23;;;;;;;;;;;;;;;14.34;49.58;100454.94;4320589;33;34241;-89
2022/10/10 07:56:52;;;;;;;;;;;;;;;14.47;48.78;100459.09;4298814;33;33000;-88
2022/10/10 07:59:20;;;;;;;;;;;;;;;14.29;49.35;100456.78;4315301;33;34476;-89
2022/10/10 08:01:56;;;;;;;;;;;;;;;14.77;48.12;100458.63;4318963;33;33734;-89
2022/10/10 08:04:27;;;;;;;;;;;;;;;14.64;48.89;100457.94;4330634;33;34655;-91
2022/10/10 08:06:58;;;;;;;;;;;;;;;14.53;48.91;100452.91;4326580;33;34345;-88
2022/10/10 08:09:26;;;;;;;;;;;;;;;14.82;48.41;100462.84;4327002;33;34828;-92
2022/10/10 08:11:56;;;;;;;;;;;;;;;14.69;49.00;100457.00;4329971;33;31915;-92
2022/10/10 08:14:25;;;;;;;;;;;;;;;14.87;48.78;100458.41;4317820;33;33588;-88
2022/10/10 08:16:56;;;;;;;;;;;;;;;14.62;48.88;100458.00;4331201;33;34017;-90
2022/10/10 08:19:27;;;;;;;;;;;;;;;14.82;48.45;100460.25;4324253;33;33670;-95
2022/10/10 08:21:56;;;;;;;;;;;;;;;14.81;48.30;100448.09;4328209;33;33390;-88
2022/10/10 08:24:25;;;;;;;;;;;;;;;14.96;48.56;100449.53;4331144;33;34481;-89
2022/10/10 08:27:01;;;;;;;;;;;;;;;15.23;48.12;100440.28;4327374;33;33679;-89
2022/10/10 08:29:30;;;;;;;;;;;;;;;15.10;48.08;100444.91;4320143;33;33621;-92
2022/10/10 08:32:02;;;;;;;;;;;;;;;15.12;48.06;100443.09;4322032;33;33379;-89
2022/10/10 08:34:32;;;;;;;;;;;;;;;15.05;48.00;100444.16;4320335;33;34916;-92
2022/10/10 08:37:03;;;;;;;;;;;;;;;15.23;47.44;100442.91;4314874;33;34049;-92
2022/10/10 08:39:32;;;;;;;;;;;;;;;15.25;47.42;100437.66;4324568;33;33735;-88
2022/10/10 08:42:02;;;;;;;;;;;;;;;15.39;46.96;100425.16;4327657;33;34022;-88
2022/10/10 08:44:33;;;;;;;;;;;;;;;15.57;46.56;100426.50;4325322;33;35880;-94
2022/10/10 08:47:06;;;;;;;;;;;;;;;15.65;46.43;100432.41;4321435;33;33024;-90
2022/10/10 08:49:39;;;;;;;;;;;;;;;15.58;45.46;100422.97;4333087;33;33851;-89
2022/10/10 08:52:14;;;;;;;;;;;;;;;15.82;45.40;100429.47;4305114;33;32025;-90
2022/10/10 08:54:44;;;;;;;;;;;;;;;15.94;45.50;100423.09;4315267;33;33993;-89
2022/10/10 08:57:22;;;;;;;;;;;;;;;15.83;45.02;100414.66;4315077;33;34596;-89
2022/10/10 08:59:54;;;;;;;;;;;;;;;16.05;44.17;100420.22;4318695;33;32940;-88
2022/10/10 09:02:25;;;;;;;;;;;;;;;15.39;44.96;100416.44;4325627;33;32852;-88
2022/10/10 09:05:30;;;;;;;;;;;;;;;15.92;44.03;100420.53;4329020;33;33993;-88
2022/10/10 09:08:21;;;;;;;;;;;;;;;16.07;43.87;100410.56;4324211;33;35352;-88
2022/10/10 09:10:55;;;;;;;;;;;;;;;16.15;43.77;100413.87;4323731;33;33786;-87
2022/10/10 09:13:34;;;;;;;;;;;;;;;16.03;43.68;100406.31;4315399;33;31070;-90
2022/10/10 09:16:08;;;;;;;;;;;;;;;16.12;43.79;100409.56;4310310;33;35106;-88
2022/10/10 09:18:41;;;;;;;;;;;;;;;16.27;43.62;100408.31;4316476;33;35199;-89
2022/10/10 09:21:15;;;;;;;;;;;;;;;16.28;43.70;100403.94;4330801;33;34265;-88
2022/10/10 09:23:45;;;;;;;;;;;;;;;15.88;43.59;100402.31;4316795;33;32920;-88
2022/10/10 09:26:18;;;;;;;;;;;;;;;16.10;44.21;100403.50;4316492;33;33146;-87
2022/10/10 09:28:50;;;;;;;;;;;;;;;16.53;44.37;100409.41;4323627;33;34442;-89
2022/10/10 09:31:21;;;;;;;;;;;;;;;16.46;42.57;100403.47;4328555;33;33608;-88
2022/10/10 09:33:52;;;;;;;;;;;;;;;16.41;43.07;100405.34;4325509;33;32686;-90
2022/10/10 09:36:23;;;;;;;;;;;;;;;16.45;43.14;100404.34;4312618;33;32811;-88
2022/10/10 09:38:54;;;;;;;;;;;;;;;16.62;42.27;100406.53;4325829;33;32960;-89
2022/10/10 09:41:23;;;;;;;;;;;;;;;16.41;42.86;100407.97;4321335;33;34282;-88
2022/10/10 09:43:55;;;;;;;;;;;;;;;16.70;41.70;100403.75;4315955;33;32059;-89
2022/10/10 09:46:24;;;;;;;;;;;;;;;16.78;41.30;100401.75;4324703;33;34887;-89
2022/10/10 09:48:55;;;;;;;;;;;;;;;16.74;41.20;100398.34;4321029;33;33388;-88
2022/10/10 09:51:26;;;;;;;;;;;;;;;17.02;40.75;100403.72;4324885;33;33704;-88
2022/10/10 09:53:57;;;;;;;;;;;;;;;17.04;41.39;100399.31;4328201;33;33447;-89
2022/10/10 09:56:28;;;;;;;;;;;;;;;16.91;41.86;100402.31;4309777;33;34720;-87
2022/10/10 09:59:01;;;;;;;;;;;;;;;17.16;41.73;100398.09;4304452;33;33251;-89
2022/10/10 10:01:31;;;;;;;;;;;;;;;17.00;41.26;100395.03;4321239;33;32799;-89
2022/10/10 10:04:13;;;;;;;;;;;;;;;17.14;39.97;100393.78;4306323;33;33199;-89
2022/10/10 10:07:09;;;;;;;;;;;;;;;17.06;39.81;100391.41;4306356;33;33901;-87
2022/10/10 10:09:38;;;;;;;;;;;;;;;17.24;40.34;100395.25;4312685;33;34318;-89
2022/10/10 10:12:22;;;;;;;;;;;;;;;17.35;40.61;100387.91;4303621;33;34415;-91
2022/10/10 10:15:01;;;;;;;;;;;;;;;17.41;40.94;100387.72;4303882;33;32934;-89
2022/10/10 10:17:31;;;;;;;;;;;;;;;17.44;40.84;100389.37;4322494;33;33305;-88
2022/10/10 10:20:00;;;;;;;;;;;;;;;17.62;41.12;100390.63;4308667;33;34292;-89
2022/10/10 10:22:34;;;;;;;;;;;;;;;17.63;39.68;100381.81;4310150;33;33668;-89
2022/10/10 10:25:19;;;;;;;;;;;;;;;17.54;40.44;100387.34;4304503;33;34290;-88
2022/10/10 10:27:48;;;;;;;;;;;;;;;17.66;40.19;100379.97;4302728;33;33196;-90
2022/10/10 10:30:23;;;;;;;;;;;;;;;17.67;38.94;100378.19;4307728;33;35507;-90
2022/10/10 10:33:02;;;;;;;;;;;;;;;17.70;39.63;100384.19;4307566;33;35969;-88
2022/10/10 10:35:32;;;;;;;;;;;;;;;17.87;39.50;100375.81;4306153;33;31390;-88
2022/10/10 10:38:15;;;;;;;;;;;;;;;17.78;40.10;100368.19;4313068;33;36046;-90
2022/10/10 10:40:56;;;;;;;;;;;;;;;18.06;39.97;100370.81;4304457;33;33952;-90
2022/10/10 10:43:32;;;;;;;;;;;;;;;18.11;39.42;100368.91;4307101;33;35432;-90
2022/10/10 10:46:08;;;;;;;;;;;;;;;18.34;38.78;100359.41;4307004;33;34282;-89
2022/10/10 10:48:42;;;;;;;;;;;;;;;18.19;38.60;100355.50;4311523;33;34884;-91
2022/10/10 10:51:32;;;;;;;;;;;;;;;18.46;38.35;100347.59;4317730;33;34751;-90
2022/10/10 10:54:05;;;;;;;;;;;;;;;18.36;36.26;100354.09;4319052;33;33147;-88
2022/10/10 10:56:46;;;;;;;;;;;;;;;18.21;36.93;100351.06;4317072;33;34139;-91
2022/10/10 10:59:18;;;;;;;;;;;;;;;18.27;37.09;100350.88;4315933;33;34253;-89
2022/10/10 11:02:13;;;;;;;;;;;;;;;18.32;36.32;100342.84;4325479;33;34354;-88
2022/10/10 11:05:29;;;;;;;;;;;;;;;18.40;38.39;100346.03;4309414;33;33848;-90
2022/10/10 11:08:12;;;;;;;;;;;;;;;18.40;37.08;100334.69;4317882;33;33529;-91
2022/10/10 11:10:44;;;;;;;;;;;;;;;18.57;36.16;100332.31;4323168;33;34457;-91
2022/10/10 11:13:23;;;;;;;;;;;;;;;18.61;35.76;100338.31;4308288;33;33906;-93
2022/10/10 11:15:53;;;;;;;;;;;;;;;18.62;35.84;100332.16;4320525;33;33126;-89
2022/10/10 11:18:38;;;;;;;;;;;;;;;18.71;34.85;100330.03;4306911;33;33357;-91
2022/10/10 11:21:08;;;;;;;;;;;;;;;18.47;36.27;100334.41;4319887;33;34547;-90
2022/10/10 11:23:40;;;;;;;;;;;;;;;18.91;34.79;100329.31;4316781;33;34518;-88
2022/10/10 11:26:19;;;;;;;;;;;;;;;18.85;35.48;100320.84;4303671;33;33969;-88
2022/10/10 11:28:49;;;;;;;;;;;;;;;18.82;35.12;100316.53;4302328;33;33040;-89
2022/10/10 11:31:22;;;;;;;;;;;;;;;19.00;35.76;100308.88;4303771;33;33487;-89
2022/10/10 11:33:52;;;;;;;;;;;;;;;19.09;34.92;100312.00;4304190;33;33768;-88
2022/10/10 11:36:28;;;;;;;;;;;;;;;19.12;36.34;100306.62;4313487;33;33498;-90
2022/10/10 11:39:00;;;;;;;;;;;;;;;19.21;36.63;100299.28;4308006;33;35999;-88
2022/10/10 11:41:34;;;;;;;;;;;;;;;19.32;36.67;100292.69;4315161;33;35256;-90
2022/10/10 11:44:06;;;;;;;;;;;;;;;19.37;35.91;100297.78;4304801;33;32747;-92
2022/10/10 11:46:36;;;;;;;;;;;;;;;19.24;34.98;100299.19;4308590;33;34644;-89
2022/10/10 11:49:14;;;;;;;;;;;;;;;19.40;34.73;100295.00;4301726;33;34512;-94
2022/10/10 11:51:48;;;;;;;;;;;;;;;19.39;35.61;100291.53;4304970;33;33834;-89
2022/10/10 11:54:21;;;;;;;;;;;;;;;19.40;35.69;100287.13;4300855;33;33626;-92
2022/10/10 11:56:57;;;;;;;;;;;;;;;19.28;35.65;100277.09;4296057;33;33855;-91
2022/10/10 11:59:28;;;;;;;;;;;;;;;19.38;35.47;100279.31;4303243;33;34824;-89
2022/10/10 12:02:01;;;;;;;;;;;;;;;19.15;34.70;100285.47;4305082;33;34153;-90
2022/10/10 12:04:34;;;;;;;;;;;;;;;19.43;34.50;100278.28;4304645;33;33602;-90
2022/10/10 12:07:04;;;;;;;;;;;;;;;19.34;34.08;100267.19;4303900;33;33423;-90
2022/10/10 12:09:38;;;;;;;;;;;;;;;19.37;35.01;100266.19;4290156;33;34293;-89
2022/10/10 12:12:17;;;;;;;;;;;;;;;19.57;35.30;100261.00;4323114;33;33636;-90
2022/10/10 12:14:52;;;;;;;;;;;;;;;19.62;35.43;100260.81;4318831;33;33767;-88
2022/10/10 12:17:28;;;;;;;;;;;;;;;19.63;34.09;100259.88;4312922;33;34440;-96
2022/10/10 12:20:03;;;;;;;;;;;;;;;19.87;34.15;100251.91;4311604;33;32430;-89
2022/10/10 12:22:32;;;;;;;;;;;;;;;19.63;33.95;100262.50;4315801;33;37803;-93
2022/10/10 12:25:06;;;;;;;;;;;;;;;19.86;33.90;100244.91;4317821;33;33311;-89
2022/10/10 12:28:07;;;;;;;;;;;;;;;19.89;34.26;100250.06;4316425;33;34748;-88
2022/10/10 12:30:36;;;;;;;;;;;;;;;20.10;33.68;100243.84;4315116;33;33581;-89
2022/10/10 12:33:11;;;;;;;;;;;;;;;19.94;33.58;100246.31;4316045;33;34205;-91
2022/10/10 12:35:41;;;;;;;;;;;;;;;20.11;33.07;100245.56;4303319;33;33552;-91
2022/10/10 12:38:19;;;;;;;;;;;;;;;19.92;33.40;100240.25;4315395;33;34537;-89
2022/10/10 12:41:10;;;;;;;;;;;;;;;20.09;32.47;100252.69;4306363;33;32045;-90
2022/10/10 12:43:45;;;;;;;;;;;;;;;20.00;32.77;100243.38;4262087;33;35703;-89
2022/10/10 12:46:26;;;;;;;;;;;;;;;20.09;34.05;100247.41;4260267;33;33828;-90
2022/10/10 12:48:59;;;;;;;;;;;;;;;20.09;34.62;100246.56;4257515;33;33284;-90
2022/10/10 12:51:29;;;;;;;;;;;;;;;20.25;34.45;100242.34;4270950;33;32799;-94
2022/10/10 12:53:58;;;;;;;;;;;;;;;20.01;34.97;100241.63;4252194;33;34607;-92
2022/10/10 12:56:34;;;;;;;;;;;;;;;20.08;34.77;100244.84;4258662;33;35230;-91
2022/10/10 12:59:19;;;;;;;;;;;;;;;20.44;34.42;100247.63;4251331;33;35005;-90
2022/10/10 13:01:56;;;;;;;;;;;;;;;20.58;32.87;100241.75;4265921;33;32283;-92
2022/10/10 13:04:50;;;;;;;;;;;;;;;20.83;32.88;100231.78;4267148;33;33598;-93